createdAt,value
2022-08-25T00:02:05.076Z,6.25
2022-08-25T00:04:35.444Z,7.15
2022-08-25T00:07:05.720Z,6.70
2022-08-25T00:09:35.274Z,7.07
2022-08-25T00:12:05.066Z,6.35
2022-08-25T00:14:35.972Z,6.82
2022-08-25T00:17:06.719Z,6.93
2022-08-25T00:19:36.881Z,7.40
2022-08-25T00:24:33.130Z,6.97
2022-08-25T00:27:01.923Z,7.50
2022-08-25T00:29:31.354Z,8.07
2022-08-25T00:31:59.496Z,6.97
2022-08-25T00:34:33.585Z,6.68
2022-08-25T00:37:04.172Z,6.85
2022-08-25T00:39:31.918Z,6.37
2022-08-25T00:42:00.175Z,6.82
2022-08-25T00:44:30.216Z,6.85
2022-08-25T00:47:01.111Z,6.45
2022-08-25T00:49:39.228Z,7.15
2022-08-25T00:52:18.243Z,6.93
2022-08-25T00:54:52.376Z,6.20
2022-08-25T00:57:34.514Z,6.97
2022-08-25T01:00:15.836Z,7.12
2022-08-25T01:02:43.716Z,7.57
2022-08-25T01:05:12.659Z,7.00
2022-08-25T01:07:43.615Z,7.45
2022-08-25T01:10:14.097Z,7.90
2022-08-25T01:12:42.092Z,7.60
2022-08-25T01:15:12.184Z,7.28
2022-08-25T01:17:50.382Z,7.50
2022-08-25T01:20:20.789Z,7.75
2022-08-25T01:22:55.208Z,7.68
2022-08-25T01:25:35.215Z,7.90
2022-08-25T01:28:05.309Z,7.50
2022-08-25T01:30:33.765Z,7.68
2022-08-25T01:33:07.469Z,7.78
2022-08-25T01:35:36.576Z,7.32
2022-08-25T01:38:05.719Z,7.65
2022-08-25T01:40:35.271Z,7.68
2022-08-25T01:43:15.168Z,7.97
2022-08-25T01:45:47.305Z,8.20
2022-08-25T01:48:16.319Z,7.72
2022-08-25T01:50:44.312Z,8.25
2022-08-25T01:53:19.976Z,7.65
2022-08-25T01:56:01.371Z,7.85
2022-08-25T01:58:36.137Z,8.10
2022-08-25T02:01:08.565Z,8.30
2022-08-25T02:03:42.368Z,8.73
2022-08-25T02:06:14.849Z,8.07
2022-08-25T02:08:43.626Z,8.25
2022-08-25T02:11:13.903Z,8.90
2022-08-25T02:16:15.204Z,8.48
2022-08-25T02:18:43.224Z,8.30
2022-08-25T02:21:11.466Z,8.55
2022-08-25T02:23:39.055Z,8.63
2022-08-25T02:26:07.059Z,8.15
2022-08-25T02:28:35.120Z,8.57
2022-08-25T02:31:04.494Z,8.30
2022-08-25T02:33:32.481Z,8.67
2022-08-25T02:36:02.072Z,8.60
2022-08-25T02:38:29.968Z,7.97
2022-08-25T02:40:59.907Z,8.00
2022-08-25T02:43:29.181Z,8.13
2022-08-25T02:45:56.933Z,8.88
2022-08-25T02:48:25.008Z,8.40
2022-08-25T02:50:54.093Z,7.93
2022-08-25T02:53:21.880Z,9.00
2022-08-25T02:55:49.991Z,9.02
2022-08-25T02:58:17.870Z,9.25
2022-08-25T03:00:47.285Z,8.20
2022-08-25T03:03:15.440Z,8.20
2022-08-25T03:05:43.652Z,8.32
2022-08-25T03:08:11.600Z,9.27
2022-08-25T03:10:39.871Z,8.27
2022-08-25T03:13:07.667Z,8.65
2022-08-25T03:15:37.950Z,9.40
2022-08-25T03:18:08.643Z,9.20
2022-08-25T03:20:36.470Z,8.90
2022-08-25T03:23:05.442Z,8.90
2022-08-25T03:25:52.572Z,8.60
2022-08-25T03:28:28.931Z,9.32
2022-08-25T03:30:59.212Z,8.75
2022-08-25T03:33:28.654Z,9.15
2022-08-25T03:35:56.926Z,8.63
2022-08-25T03:38:25.968Z,9.38
2022-08-25T03:40:54.385Z,9.68
2022-08-25T03:43:22.237Z,8.70
2022-08-25T03:45:50.203Z,9.80
2022-08-25T03:48:18.179Z,9.43
2022-08-25T03:50:50.763Z,9.77
2022-08-25T03:53:20.738Z,9.43
2022-08-25T03:55:48.626Z,9.05
2022-08-25T03:58:17.109Z,8.85
2022-08-25T04:00:45.103Z,9.45
2022-08-25T04:03:13.112Z,8.48
2022-08-25T04:05:40.938Z,8.85
2022-08-25T04:08:09.277Z,9.27
2022-08-25T04:10:37.707Z,8.95
2022-08-25T04:13:06.589Z,8.57
2022-08-25T04:15:34.576Z,8.48
2022-08-25T04:18:03.394Z,8.07
2022-08-25T04:20:31.025Z,7.57
2022-08-25T04:23:01.340Z,7.80
2022-08-25T04:27:57.394Z,7.95
2022-08-25T04:30:25.102Z,7.97
2022-08-25T04:32:53.075Z,7.70
2022-08-25T04:35:22.316Z,7.80
2022-08-25T04:37:50.040Z,7.85
2022-08-25T04:40:18.346Z,6.72
2022-08-25T04:42:48.173Z,7.53
2022-08-25T04:45:16.074Z,7.87
2022-08-25T04:47:44.161Z,7.35
2022-08-25T04:50:11.856Z,7.07
2022-08-25T04:52:39.863Z,7.47
2022-08-25T04:55:08.095Z,7.65
2022-08-25T04:57:36.034Z,7.82
2022-08-25T05:00:05.027Z,7.40
2022-08-25T05:02:32.990Z,7.95
2022-08-25T05:05:01.506Z,7.68
2022-08-25T05:07:29.210Z,7.45
2022-08-25T05:09:57.172Z,7.30
2022-08-25T05:12:24.858Z,6.82
2022-08-25T05:14:53.977Z,7.50
2022-08-25T05:17:22.518Z,8.65
2022-08-25T05:19:50.285Z,7.18
2022-08-25T05:22:18.438Z,7.18
2022-08-25T05:24:46.543Z,7.60
2022-08-25T05:27:14.286Z,6.68
2022-08-25T05:29:41.918Z,6.85
2022-08-25T05:32:10.162Z,7.18
2022-08-25T05:34:38.288Z,7.03
2022-08-25T05:37:08.287Z,6.55
2022-08-25T05:39:39.588Z,7.18
2022-08-25T05:42:07.528Z,6.37
2022-08-25T05:44:35.210Z,6.80
2022-08-25T05:47:03.191Z,6.78
2022-08-25T05:49:30.842Z,6.57
2022-08-25T05:51:58.579Z,7.07
2022-08-25T05:54:27.006Z,6.50
2022-08-25T05:56:54.781Z,6.28
2022-08-25T05:59:22.493Z,6.40
2022-08-25T06:02:12.749Z,5.93
2022-08-25T06:07:09.638Z,6.65
2022-08-25T06:09:41.911Z,7.40
2022-08-25T06:12:09.903Z,6.62
2022-08-25T06:14:40.158Z,7.30
2022-08-25T06:19:35.798Z,6.55
2022-08-25T06:22:07.548Z,6.68
2022-08-25T06:24:36.020Z,7.25
2022-08-25T06:27:03.856Z,7.22
2022-08-25T06:29:31.714Z,7.20
2022-08-25T06:31:59.792Z,6.32
2022-08-25T06:34:27.412Z,6.40
2022-08-25T06:36:55.128Z,6.30
2022-08-25T06:39:24.398Z,6.55
2022-08-25T06:41:53.974Z,6.20
2022-08-25T06:44:23.115Z,6.97
2022-08-25T06:46:51.550Z,6.73
2022-08-25T06:49:19.298Z,6.55
2022-08-25T06:51:47.258Z,7.40
2022-08-25T06:54:15.434Z,6.45
2022-08-25T06:56:43.204Z,6.53
2022-08-25T06:59:11.561Z,6.25
2022-08-25T07:01:39.807Z,5.78
2022-08-25T07:04:11.848Z,6.68
2022-08-25T07:06:42.009Z,6.37
2022-08-25T07:09:11.480Z,7.15
2022-08-25T07:11:41.590Z,6.30
2022-08-25T07:14:11.846Z,6.45
2022-08-25T07:16:42.425Z,6.32
2022-08-25T07:19:14.761Z,6.30
2022-08-25T07:21:45.803Z,6.12
2022-08-25T07:24:14.473Z,6.43
2022-08-25T07:26:43.580Z,6.47
2022-08-25T07:29:14.295Z,6.07
2022-08-25T07:31:42.705Z,5.75
2022-08-25T07:34:29.504Z,6.32
2022-08-25T07:36:58.106Z,6.40
2022-08-25T07:39:26.748Z,6.37
2022-08-25T07:41:57.384Z,5.87
2022-08-25T07:44:27.913Z,5.62
2022-08-25T07:46:56.680Z,5.68
2022-08-25T07:49:36.222Z,5.70
2022-08-25T07:52:09.018Z,5.65
2022-08-25T07:54:38.090Z,5.68
2022-08-25T07:57:08.190Z,4.82
2022-08-25T07:59:40.438Z,4.95
2022-08-25T08:02:18.468Z,5.00
2022-08-25T08:04:50.161Z,5.28
2022-08-25T08:07:25.805Z,4.30
2022-08-25T08:13:02.183Z,4.35
2022-08-25T08:15:30.703Z,4.18
2022-08-25T08:17:59.773Z,4.80
2022-08-25T08:20:29.006Z,4.40
2022-08-25T08:22:57.209Z,4.10
2022-08-25T08:25:26.769Z,4.20
2022-08-25T08:27:56.317Z,3.90
2022-08-25T08:30:26.459Z,3.63
2022-08-25T08:35:41.825Z,4.28
2022-08-25T08:38:16.027Z,3.90
2022-08-25T08:44:47.909Z,4.30
2022-08-25T08:47:28.036Z,4.05
2022-08-25T08:50:05.078Z,4.68
2022-08-25T08:52:46.110Z,4.22
2022-08-25T08:55:37.065Z,3.80
2022-08-25T08:58:19.831Z,3.58
2022-08-25T09:00:58.417Z,4.03
2022-08-25T09:03:40.529Z,4.18
2022-08-25T09:06:24.586Z,4.07
2022-08-25T09:08:55.647Z,3.35
2022-08-25T09:11:42.122Z,3.83
2022-08-25T09:14:34.066Z,3.80
2022-08-25T09:17:27.007Z,3.55
2022-08-25T09:20:18.758Z,4.30
2022-08-25T09:22:56.480Z,3.83
2022-08-25T09:25:54.066Z,4.05
2022-08-25T09:28:37.158Z,4.28
2022-08-25T09:31:24.355Z,3.53
2022-08-25T09:33:57.934Z,4.00
2022-08-25T09:36:26.920Z,4.70
2022-08-25T09:38:54.613Z,4.35
2022-08-25T09:41:47.100Z,5.03
2022-08-25T09:44:20.981Z,4.25
2022-08-25T09:47:02.124Z,4.95
2022-08-25T09:49:41.637Z,4.82
2022-08-25T09:52:31.941Z,4.50
2022-08-25T09:55:05.087Z,5.47
2022-08-25T09:57:44.726Z,4.72
2022-08-25T10:00:21.951Z,4.72
2022-08-25T10:03:14.084Z,4.72
2022-08-25T10:05:46.319Z,3.95
2022-08-25T10:08:32.868Z,4.70
2022-08-25T10:11:05.139Z,4.45
2022-08-25T10:13:51.431Z,3.97
2022-08-25T10:16:27.007Z,4.32
2022-08-25T10:19:02.377Z,4.00
2022-08-25T10:21:30.424Z,4.60
2022-08-25T10:24:01.661Z,4.05
2022-08-25T10:26:44.654Z,4.28
2022-08-25T10:29:35.940Z,4.75
2022-08-25T10:32:21.660Z,3.62
2022-08-25T10:34:51.362Z,3.30
2022-08-25T10:37:39.836Z,3.75
2022-08-25T10:40:21.796Z,3.87
2022-08-25T10:42:55.124Z,4.03
2022-08-25T10:45:43.669Z,4.12
2022-08-25T10:48:23.616Z,3.80
2022-08-25T10:51:18.855Z,4.20
2022-08-25T10:54:10.982Z,4.25
2022-08-25T10:56:42.871Z,4.47
2022-08-25T10:59:57.813Z,3.65
2022-08-25T11:02:38.409Z,4.87
2022-08-25T11:05:26.790Z,4.07
2022-08-25T11:08:14.509Z,4.25
2022-08-25T11:10:53.103Z,3.87
2022-08-25T11:13:31.833Z,3.90
2022-08-25T11:16:18.880Z,4.43
2022-08-25T11:19:05.419Z,3.92
2022-08-25T11:21:54.839Z,3.90
2022-08-25T11:24:49.214Z,4.43
2022-08-25T11:27:47.265Z,4.32
2022-08-25T11:30:18.741Z,3.92
2022-08-25T11:32:53.024Z,4.12
2022-08-25T11:35:30.337Z,3.92
2022-08-25T11:37:58.053Z,3.80
2022-08-25T11:40:50.465Z,3.75
2022-08-25T11:43:42.953Z,3.47
2022-08-25T11:46:48.976Z,3.33
2022-08-25T11:49:39.730Z,3.87
2022-08-25T11:52:34.524Z,4.03
2022-08-25T11:55:43.691Z,3.78
2022-08-25T11:58:44.907Z,3.73
2022-08-25T12:01:44.243Z,4.03
2022-08-25T12:04:30.963Z,3.60
2022-08-25T12:07:11.188Z,3.08
2022-08-25T12:09:51.405Z,3.75
2022-08-25T12:12:28.459Z,4.03
2022-08-25T12:15:15.048Z,3.65
2022-08-25T12:17:42.799Z,3.50
2022-08-25T12:20:11.175Z,3.30
2022-08-25T12:22:41.753Z,3.50
2022-08-25T12:25:28.885Z,3.92
2022-08-25T12:28:14.801Z,3.67
2022-08-25T12:30:57.068Z,4.40
2022-08-25T12:33:59.482Z,3.78
2022-08-25T12:36:33.615Z,3.70
2022-08-25T12:39:17.285Z,3.78
2022-08-25T12:41:58.687Z,3.45
2022-08-25T12:45:09.657Z,3.80
2022-08-25T12:47:41.849Z,3.37
2022-08-25T12:50:33.404Z,3.08
2022-08-25T12:53:19.109Z,3.47
2022-08-25T12:55:51.680Z,3.75
2022-08-25T12:58:20.307Z,3.05
2022-08-25T13:01:35.577Z,3.85
2022-08-25T13:04:23.153Z,2.92
2022-08-25T13:07:18.197Z,3.03
2022-08-25T13:09:58.768Z,2.85
2022-08-25T13:12:44.853Z,2.83
2022-08-25T13:15:25.258Z,3.30
2022-08-25T13:17:53.381Z,3.03
2022-08-25T13:20:29.295Z,3.45
2022-08-25T13:23:00.944Z,4.12
2022-08-25T13:25:32.420Z,2.87
2022-08-25T13:28:06.491Z,3.25
2022-08-25T13:30:39.444Z,2.58
2022-08-25T13:33:23.939Z,2.97
2022-08-25T13:36:14.559Z,2.70
2022-08-25T13:38:45.799Z,2.92
2022-08-25T13:41:20.632Z,3.17
2022-08-25T13:43:48.471Z,2.95
2022-08-25T13:46:22.379Z,3.00
2022-08-25T13:48:50.355Z,3.20
2022-08-25T13:51:22.574Z,3.40
2022-08-25T13:53:58.429Z,2.75
2022-08-25T13:56:39.978Z,3.37
2022-08-25T13:59:24.585Z,3.15
2022-08-25T14:01:55.380Z,3.45
2022-08-25T14:04:50.887Z,2.90
2022-08-25T14:07:22.826Z,2.95
2022-08-25T14:10:08.759Z,2.60
2022-08-25T14:12:41.398Z,2.95
2022-08-25T14:15:29.660Z,3.25
2022-08-25T14:18:18.194Z,3.03
2022-08-25T14:20:50.791Z,2.85
2022-08-25T14:23:22.445Z,2.92
2022-08-25T14:25:52.112Z,2.83
2022-08-25T14:28:23.010Z,3.10
2022-08-25T14:31:02.288Z,3.00
2022-08-25T14:33:37.496Z,2.85
2022-08-25T14:36:06.877Z,3.12
2022-08-25T14:38:35.578Z,2.78
2022-08-25T14:43:39.861Z,2.30
2022-08-25T14:46:18.045Z,3.12
2022-08-25T14:48:52.227Z,3.08
2022-08-25T14:51:20.457Z,2.80
2022-08-25T14:53:48.288Z,3.12
2022-08-25T14:56:16.436Z,2.45
2022-08-25T14:58:51.022Z,2.53
2022-08-25T15:01:28.419Z,2.53
2022-08-25T15:04:13.195Z,2.72
2022-08-25T15:06:44.865Z,3.28
2022-08-25T15:09:16.618Z,2.30
2022-08-25T15:11:47.325Z,1.95
2022-08-25T15:14:28.634Z,3.28
2022-08-25T15:17:02.025Z,2.65
2022-08-25T15:19:30.327Z,2.33
2022-08-25T15:21:59.355Z,2.40
2022-08-25T15:24:28.949Z,2.70
2022-08-25T15:27:03.953Z,2.72
2022-08-25T15:29:34.944Z,2.90
2022-08-25T15:32:07.099Z,2.75
2022-08-25T15:34:36.612Z,2.60
2022-08-25T15:37:16.211Z,2.95
2022-08-25T15:39:45.679Z,2.80
2022-08-25T15:42:14.001Z,2.90
2022-08-25T15:44:42.491Z,2.65
2022-08-25T15:47:24.166Z,2.60
2022-08-25T15:50:03.952Z,2.47
2022-08-25T15:52:46.066Z,2.40
2022-08-25T15:55:15.100Z,2.58
2022-08-25T15:57:43.702Z,2.75
2022-08-25T16:00:13.643Z,2.75
2022-08-25T16:02:45.403Z,3.10
2022-08-25T16:05:16.493Z,2.87
2022-08-25T16:07:51.796Z,2.60
2022-08-25T16:10:20.026Z,2.35
2022-08-25T16:12:48.175Z,2.50
2022-08-25T16:15:16.176Z,2.60
2022-08-25T16:17:47.006Z,2.33
2022-08-25T16:20:20.826Z,2.45
2022-08-25T16:22:51.060Z,2.53
2022-08-25T16:25:19.672Z,2.65
2022-08-25T16:27:48.199Z,2.58
2022-08-25T16:30:17.783Z,3.25
2022-08-25T16:32:46.813Z,2.70
2022-08-25T16:35:14.538Z,2.90
2022-08-25T16:37:42.648Z,2.58
2022-08-25T16:40:14.805Z,2.45
2022-08-25T16:42:42.744Z,3.20
2022-08-25T16:45:11.899Z,2.53
2022-08-25T16:47:39.755Z,3.00
2022-08-25T16:50:11.461Z,2.28
2022-08-25T16:52:58.291Z,2.70
2022-08-25T16:55:29.119Z,2.67
2022-08-25T16:58:07.894Z,2.72
2022-08-25T17:00:38.250Z,2.80
2022-08-25T17:03:07.715Z,3.05
2022-08-25T17:05:40.775Z,2.92
2022-08-25T17:08:27.381Z,2.85
2022-08-25T17:11:03.735Z,2.55
2022-08-25T17:13:33.118Z,3.15
2022-08-25T17:16:03.177Z,2.80
2022-08-25T17:18:31.273Z,2.67
2022-08-25T17:21:05.814Z,2.75
2022-08-25T17:23:35.368Z,3.20
2022-08-25T17:26:05.371Z,2.92
2022-08-25T17:28:34.073Z,2.87
2022-08-25T17:31:04.705Z,2.35
2022-08-25T17:33:32.936Z,3.33
2022-08-25T17:36:00.697Z,3.05
2022-08-25T17:38:30.304Z,2.95
2022-08-25T17:41:03.572Z,2.90
2022-08-25T17:43:35.886Z,3.05
2022-08-25T17:46:06.494Z,3.40
2022-08-25T17:48:36.147Z,3.72
2022-08-25T17:51:05.273Z,2.97
2022-08-25T17:53:35.071Z,2.80
2022-08-25T17:56:06.551Z,3.33
2022-08-25T17:58:35.544Z,2.95
2022-08-25T18:01:05.444Z,3.70
2022-08-25T18:06:01.481Z,3.17
2022-08-25T18:08:35.204Z,3.97
2022-08-25T18:11:05.055Z,2.50
2022-08-25T18:13:32.996Z,3.35
2022-08-25T18:16:01.040Z,3.00
2022-08-25T18:20:58.943Z,3.92
2022-08-25T18:23:27.542Z,3.80
2022-08-25T18:26:01.017Z,4.32
2022-08-25T18:28:29.714Z,3.67
2022-08-25T18:30:57.869Z,3.72
2022-08-25T18:33:25.756Z,3.65
2022-08-25T18:35:58.297Z,3.10
2022-08-25T18:38:45.086Z,4.00
2022-08-25T18:41:13.658Z,3.58
2022-08-25T18:43:41.975Z,4.20
2022-08-25T18:46:10.016Z,5.62
2022-08-25T18:48:38.316Z,7.57
2022-08-25T18:51:10.576Z,5.22
2022-08-25T18:53:49.674Z,5.97
2022-08-25T18:56:22.534Z,4.80
2022-08-25T18:58:50.575Z,4.50
2022-08-25T19:01:19.817Z,4.30
2022-08-25T19:03:47.781Z,4.10
2022-08-25T19:06:16.943Z,3.53
2022-08-25T19:08:45.294Z,3.80
2022-08-25T19:11:13.132Z,3.87
2022-08-25T19:13:41.286Z,3.97
2022-08-25T19:16:11.959Z,3.92
2022-08-25T19:18:42.075Z,4.47
2022-08-25T19:21:10.806Z,4.25
2022-08-25T19:23:39.052Z,4.90
2022-08-25T19:26:16.945Z,5.10
2022-08-25T19:28:48.982Z,5.43
2022-08-25T19:31:23.044Z,5.68
2022-08-25T19:33:55.193Z,5.97
2022-08-25T19:36:28.137Z,6.15
2022-08-25T19:38:59.004Z,5.68
2022-08-25T19:41:29.720Z,5.43
2022-08-25T19:43:57.814Z,5.97
2022-08-25T19:46:32.130Z,5.05
2022-08-25T19:49:08.062Z,5.47
2022-08-25T19:51:38.924Z,5.75
2022-08-25T19:54:09.046Z,5.03
2022-08-25T19:56:44.041Z,4.68
2022-08-25T19:59:25.463Z,3.85
2022-08-25T20:01:54.684Z,4.12
2022-08-25T20:04:24.197Z,4.07
2022-08-25T20:12:10.499Z,4.20
2022-08-25T20:17:23.092Z,4.32
2022-08-25T20:19:56.056Z,3.80
2022-08-25T20:22:29.686Z,3.75
2022-08-25T20:25:07.339Z,3.60
2022-08-25T20:27:45.024Z,3.45
2022-08-25T20:30:20.642Z,3.00
2022-08-25T20:32:52.142Z,3.65
2022-08-25T20:35:26.470Z,3.40
2022-08-25T20:37:56.944Z,2.90
2022-08-25T20:42:54.970Z,3.10
2022-08-25T20:45:23.399Z,3.40
2022-08-25T20:47:52.390Z,3.03
2022-08-25T20:50:20.718Z,3.50
2022-08-25T20:52:48.670Z,2.80
2022-08-25T20:55:18.826Z,3.65
2022-08-25T21:00:16.560Z,2.95
2022-08-25T21:02:46.344Z,2.85
2022-08-25T21:05:14.551Z,3.37
2022-08-25T21:07:42.735Z,3.20
2022-08-25T21:10:14.523Z,3.45
2022-08-25T21:12:45.066Z,3.42
2022-08-25T21:15:17.039Z,3.10
2022-08-25T21:17:50.198Z,3.55
2022-08-25T21:20:18.486Z,3.28
2022-08-25T21:22:46.265Z,3.40
2022-08-25T21:25:14.479Z,2.90
2022-08-25T21:27:43.474Z,3.33
2022-08-25T21:30:12.389Z,2.95
2022-08-25T21:32:40.115Z,3.05
2022-08-25T21:35:23.879Z,3.45
2022-08-25T21:37:53.887Z,3.10
2022-08-25T21:40:23.145Z,2.93
2022-08-25T21:42:52.491Z,3.30
2022-08-25T21:45:21.989Z,2.87
2022-08-25T21:47:50.286Z,3.08
2022-08-25T21:50:20.387Z,3.00
2022-08-25T21:52:48.198Z,3.22
2022-08-25T21:55:23.435Z,3.35
2022-08-25T21:57:51.524Z,3.33
2022-08-25T22:00:21.273Z,3.15
2022-08-25T22:02:50.044Z,2.62
2022-08-25T22:05:18.263Z,3.22
2022-08-25T22:07:45.931Z,3.50
2022-08-25T22:10:16.777Z,3.20
2022-08-25T22:12:48.931Z,3.33
2022-08-25T22:15:18.395Z,3.35
2022-08-25T22:17:48.005Z,3.80
2022-08-25T22:20:18.422Z,3.70
2022-08-25T22:22:46.426Z,3.58
2022-08-25T22:25:14.555Z,3.75
2022-08-25T22:27:42.509Z,3.33
2022-08-25T22:30:11.464Z,3.53
2022-08-25T22:32:39.236Z,3.28
2022-08-25T22:35:08.037Z,3.67
2022-08-25T22:37:37.643Z,3.78
2022-08-25T22:40:06.286Z,3.95
2022-08-25T22:42:33.999Z,3.25
2022-08-25T22:45:02.016Z,3.37
2022-08-25T22:47:31.261Z,3.70
2022-08-25T22:49:59.239Z,3.60
2022-08-25T22:52:33.334Z,4.07
2022-08-25T22:55:02.993Z,3.40
2022-08-25T22:57:31.676Z,3.83
2022-08-25T22:59:59.442Z,3.55
2022-08-25T23:02:30.497Z,3.72
2022-08-25T23:05:00.949Z,3.33
2022-08-25T23:07:29.150Z,3.22
2022-08-25T23:09:59.786Z,3.60
2022-08-25T23:12:27.815Z,3.65
2022-08-25T23:14:55.933Z,3.78
2022-08-25T23:17:23.614Z,3.62
2022-08-25T23:19:51.620Z,3.80
2022-08-25T23:22:19.869Z,3.40
2022-08-25T23:24:52.014Z,3.00
2022-08-25T23:27:21.920Z,3.40
2022-08-25T23:29:50.230Z,4.78
2022-08-25T23:32:18.529Z,3.22
2022-08-25T23:34:47.342Z,4.75
2022-08-25T23:37:18.308Z,3.30
2022-08-25T23:39:49.898Z,3.60
2022-08-25T23:42:19.853Z,3.62
2022-08-25T23:44:49.220Z,4.00
2022-08-25T23:47:18.570Z,3.78
2022-08-25T23:49:48.287Z,4.22
2022-08-25T23:52:17.726Z,3.75
2022-08-25T23:54:46.163Z,3.87
2022-08-25T23:57:14.061Z,3.92
2022-08-25T23:59:43.312Z,3.65
